プーケット の空港の天気 - METARとTAF

プーケット国際空港 ( VTSP / HKT ) - タイ プーケット県
飛行場実況気象(Metar)
観測時間05/25 17:00 +07 (05/25 10:00 UTC)
風向・風速南西 2m/s
視程8000m
天気現象
少しの雲 雲底高度 550m
気温30℃
湿度66%
気圧1007hPa
METARVTSP 251000Z 22004KT 8000 FEW018 30/23 Q1007 NOSIG
過去の天気等 Google飛行場航空写真 Wunderground天気予報

過去48時間のMETAR

飛行場予報(TAF)
発表時間: 5/25 12:00 +07 (5/25 05:00 UTC)
予報対象時間: 25日13時 +07 ~ 26日19時 +07
風向・風速西南西 6m/s
視程8,000m
全天の4割程度の雲 雲底高度 550m
全天の8割程度の雲 雲底高度 3,050m
25日13時 +07 ~ 25日17時 +07 に一時的に
風向・風速西南西 8m/s 瞬間風速 15m/s
視程3,000m
天気現象雷雨
少しの積乱雲 雲底高度 490m
全天の4割程度の雲 雲底高度 610m
全天の8割程度の雲 雲底高度 3,050m
25日21時 +07 ~ 26日1時 +07 に一時的に
風向・風速西南西 8m/s 瞬間風速 15m/s
視程3,000m
天気現象雷雨
少しの積乱雲 雲底高度 490m
全天の4割程度の雲 雲底高度 610m
全天の8割程度の雲 雲底高度 3,050m
TAF VTSP 250500Z 2506/2612 24012KT 8000 SCT018 BKN100
TEMPO 2506/2510 24015G30KT 3000 TSRA FEW016CB SCT020 BKN100
TEMPO 2514/2518 24015G30KT 3000 TSRA FEW016CB SCT020 BKN100